This is the latest recevied weather packets stored in our database for station/object E22FEY-1. If no packets are shown the sender has not sent any weather packets the latest 10 day(s).
| Time | Temp. | Humidity | Pressure | Rain* | Wind** | Luminosity | Snow |
|---|---|---|---|---|---|---|---|
| 1777796015 | 39.44° C | 40% | 1005 hPa | - | - | 0 W/m² | - |
| 1777795091 | 38.89° C | 41% | 1005 hPa | - | - | 0 W/m² | - |
| 1777794166 | 38.33° C | 44% | 1005 hPa | - | - | 0 W/m² | - |
| 1777793242 | 40° C | 42% | 1006 hPa | - | - | 0 W/m² | - |
| 1777792317 | 38.89° C | 43% | 1006 hPa | - | - | 0 W/m² | - |
| 1777791392 | 38.89° C | 43% | 1006 hPa | - | - | 0 W/m² | - |
| 1777790468 | 39.44° C | 43% | 1006 hPa | - | - | 0 W/m² | - |
| 1777789544 | 39.44° C | 44% | 1007 hPa | - | - | 0 W/m² | - |
| 1777788619 | 38.33° C | 46% | 1007 hPa | - | - | 0 W/m² | - |
| 1777787695 | 38.89° C | 44% | 1008 hPa | - | - | 0 W/m² | - |
| 1777786770 | 39.44° C | 43% | 1008 hPa | - | - | 0 W/m² | - |
| 1777785845 | 39.44° C | 42% | 1008 hPa | - | - | 0 W/m² | - |
| 1777784920 | 38.89° C | 44% | 1008 hPa | - | - | 0 W/m² | - |
| 1777783996 | 38.89° C | 44% | 1009 hPa | - | - | 0 W/m² | - |
| 1777783072 | 40° C | 42% | 1009 hPa | - | - | 0 W/m² | - |
| 1777782148 | 39.44° C | 42% | 1009 hPa | - | - | 0 W/m² | - |
| 1777781224 | 38.89° C | 42% | 1009 hPa | - | - | 0 W/m² | - |
| 1777780298 | 40° C | 41% | 1010 hPa | - | - | 0 W/m² | - |
| 1777779374 | 39.44° C | 41% | 1010 hPa | - | - | 0 W/m² | - |
| 1777778450 | 39.44° C | 43% | 1010 hPa | - | - | 0 W/m² | - |
| 1777777525 | 38.89° C | 43% | 1010 hPa | - | - | 0 W/m² | - |
| 1777776601 | 38.89° C | 44% | 1010 hPa | - | - | 0 W/m² | - |
| 1777775676 | 39.44° C | 44% | 1010 hPa | - | - | 0 W/m² | - |
| 1777774752 | 39.44° C | 43% | 1010 hPa | - | - | 0 W/m² | - |
| 1777773827 | 39.44° C | 43% | 1010 hPa | - | - | 0 W/m² | - |
* Rain since midnight (hover to see other rain measurements)
** Current wind speed in m/s (hover to see current wind gust speed)